sensor_id;sensor_type;location;lat;lon;timestamp;P1;durP1;ratioP1;P2;durP2;ratioP2
1839;SDS011;920;48.944;9.148;2022-10-13T00:02:12;11.67;;;9.13;;
1839;SDS011;920;48.944;9.148;2022-10-13T00:04:39;11.70;;;9.40;;
1839;SDS011;920;48.944;9.148;2022-10-13T00:07:07;11.00;;;9.33;;
1839;SDS011;920;48.944;9.148;2022-10-13T00:09:34;12.00;;;9.50;;
1839;SDS011;920;48.944;9.148;2022-10-13T00:12:00;13.30;;;9.80;;
1839;SDS011;920;48.944;9.148;2022-10-13T00:14:27;12.13;;;8.90;;
1839;SDS011;920;48.944;9.148;2022-10-13T00:16:54;12.80;;;9.70;;
1839;SDS011;920;48.944;9.148;2022-10-13T00:19:20;10.90;;;9.43;;
1839;SDS011;920;48.944;9.148;2022-10-13T00:21:47;15.27;;;8.97;;
1839;SDS011;920;48.944;9.148;2022-10-13T00:24:15;11.07;;;9.97;;
1839;SDS011;920;48.944;9.148;2022-10-13T00:26:41;13.37;;;10.83;;
1839;SDS011;920;48.944;9.148;2022-10-13T00:29:08;11.53;;;9.87;;
1839;SDS011;920;48.944;9.148;2022-10-13T00:31:35;12.20;;;8.90;;
1839;SDS011;920;48.944;9.148;2022-10-13T00:34:01;15.43;;;9.90;;
1839;SDS011;920;48.944;9.148;2022-10-13T00:36:28;13.53;;;9.70;;
1839;SDS011;920;48.944;9.148;2022-10-13T00:38:55;12.03;;;8.63;;
1839;SDS011;920;48.944;9.148;2022-10-13T00:41:24;11.03;;;9.67;;
1839;SDS011;920;48.944;9.148;2022-10-13T00:43:52;10.17;;;8.80;;
1839;SDS011;920;48.944;9.148;2022-10-13T00:46:22;11.80;;;10.37;;
1839;SDS011;920;48.944;9.148;2022-10-13T00:48:50;9.87;;;8.50;;
1839;SDS011;920;48.944;9.148;2022-10-13T00:51:19;11.87;;;9.20;;
1839;SDS011;920;48.944;9.148;2022-10-13T00:53:48;9.23;;;7.70;;
1839;SDS011;920;48.944;9.148;2022-10-13T00:56:15;9.73;;;8.10;;
1839;SDS011;920;48.944;9.148;2022-10-13T00:58:44;10.10;;;8.70;;
1839;SDS011;920;48.944;9.148;2022-10-13T01:01:12;10.00;;;9.00;;
1839;SDS011;920;48.944;9.148;2022-10-13T01:03:39;11.23;;;8.57;;
1839;SDS011;920;48.944;9.148;2022-10-13T01:06:06;13.30;;;8.60;;
1839;SDS011;920;48.944;9.148;2022-10-13T01:08:33;9.63;;;7.90;;
1839;SDS011;920;48.944;9.148;2022-10-13T01:11:04;8.80;;;7.93;;
1839;SDS011;920;48.944;9.148;2022-10-13T01:13:38;9.50;;;7.80;;
1839;SDS011;920;48.944;9.148;2022-10-13T01:16:10;9.20;;;8.20;;
1839;SDS011;920;48.944;9.148;2022-10-13T01:18:39;13.60;;;8.13;;
1839;SDS011;920;48.944;9.148;2022-10-13T01:21:13;8.17;;;7.30;;
1839;SDS011;920;48.944;9.148;2022-10-13T01:23:54;9.80;;;7.43;;
1839;SDS011;920;48.944;9.148;2022-10-13T01:29:28;11.60;;;6.90;;
1839;SDS011;920;48.944;9.148;2022-10-13T01:32:15;11.07;;;8.17;;
1839;SDS011;920;48.944;9.148;2022-10-13T01:34:47;12.60;;;8.50;;
1839;SDS011;920;48.944;9.148;2022-10-13T01:37:19;9.07;;;7.83;;
1839;SDS011;920;48.944;9.148;2022-10-13T01:39:50;8.97;;;8.00;;
1839;SDS011;920;48.944;9.148;2022-10-13T01:42:20;9.50;;;7.93;;
1839;SDS011;920;48.944;9.148;2022-10-13T01:44:50;11.03;;;8.70;;
1839;SDS011;920;48.944;9.148;2022-10-13T01:47:18;12.00;;;10.00;;
1839;SDS011;920;48.944;9.148;2022-10-13T01:49:46;13.87;;;10.00;;
1839;SDS011;920;48.944;9.148;2022-10-13T01:52:14;13.27;;;10.20;;
1839;SDS011;920;48.944;9.148;2022-10-13T01:54:42;11.57;;;10.37;;
1839;SDS011;920;48.944;9.148;2022-10-13T01:59:57;12.50;;;10.07;;
1839;SDS011;920;48.944;9.148;2022-10-13T02:02:25;11.50;;;9.87;;
1839;SDS011;920;48.944;9.148;2022-10-13T02:04:58;11.70;;;10.60;;
1839;SDS011;920;48.944;9.148;2022-10-13T02:07:31;11.83;;;8.63;;
1839;SDS011;920;48.944;9.148;2022-10-13T02:10:01;13.20;;;10.43;;
1839;SDS011;920;48.944;9.148;2022-10-13T02:12:33;12.10;;;9.97;;
1839;SDS011;920;48.944;9.148;2022-10-13T02:15:08;10.23;;;8.30;;
1839;SDS011;920;48.944;9.148;2022-10-13T02:17:38;10.70;;;8.30;;
1839;SDS011;920;48.944;9.148;2022-10-13T02:20:06;12.03;;;10.40;;
1839;SDS011;920;48.944;9.148;2022-10-13T02:22:35;16.73;;;11.10;;
1839;SDS011;920;48.944;9.148;2022-10-13T02:25:05;14.40;;;9.97;;
1839;SDS011;920;48.944;9.148;2022-10-13T02:27:33;13.40;;;9.73;;
1839;SDS011;920;48.944;9.148;2022-10-13T02:30:00;9.50;;;8.50;;
1839;SDS011;920;48.944;9.148;2022-10-13T02:32:28;10.93;;;8.77;;
1839;SDS011;920;48.944;9.148;2022-10-13T02:34:55;10.83;;;9.50;;
1839;SDS011;920;48.944;9.148;2022-10-13T02:37:21;9.90;;;8.57;;
1839;SDS011;920;48.944;9.148;2022-10-13T02:39:49;11.03;;;9.20;;
1839;SDS011;920;48.944;9.148;2022-10-13T02:42:16;12.73;;;9.23;;
1839;SDS011;920;48.944;9.148;2022-10-13T02:44:42;8.83;;;7.93;;
1839;SDS011;920;48.944;9.148;2022-10-13T02:47:09;13.57;;;9.97;;
1839;SDS011;920;48.944;9.148;2022-10-13T02:49:37;13.97;;;9.73;;
1839;SDS011;920;48.944;9.148;2022-10-13T02:52:03;12.17;;;10.23;;
1839;SDS011;920;48.944;9.148;2022-10-13T02:54:30;12.00;;;9.17;;
1839;SDS011;920;48.944;9.148;2022-10-13T02:56:57;9.73;;;8.73;;
1839;SDS011;920;48.944;9.148;2022-10-13T02:59:23;9.97;;;8.63;;
1839;SDS011;920;48.944;9.148;2022-10-13T03:01:50;9.07;;;8.17;;
1839;SDS011;920;48.944;9.148;2022-10-13T03:04:16;12.67;;;8.87;;
1839;SDS011;920;48.944;9.148;2022-10-13T03:06:44;11.33;;;9.90;;
1839;SDS011;920;48.944;9.148;2022-10-13T03:09:11;14.30;;;9.50;;
1839;SDS011;920;48.944;9.148;2022-10-13T03:11:38;14.43;;;10.03;;
1839;SDS011;920;48.944;9.148;2022-10-13T03:14:04;10.80;;;9.33;;
1839;SDS011;920;48.944;9.148;2022-10-13T03:16:31;13.27;;;9.93;;
1839;SDS011;920;48.944;9.148;2022-10-13T03:18:57;11.80;;;9.30;;
1839;SDS011;920;48.944;9.148;2022-10-13T03:21:24;11.90;;;8.87;;
1839;SDS011;920;48.944;9.148;2022-10-13T03:23:52;10.80;;;8.30;;
1839;SDS011;920;48.944;9.148;2022-10-13T03:26:19;12.80;;;9.07;;
1839;SDS011;920;48.944;9.148;2022-10-13T03:28:47;10.37;;;9.27;;
1839;SDS011;920;48.944;9.148;2022-10-13T03:31:14;12.77;;;9.43;;
1839;SDS011;920;48.944;9.148;2022-10-13T03:33:42;11.83;;;10.50;;
1839;SDS011;920;48.944;9.148;2022-10-13T03:36:08;11.50;;;10.00;;
1839;SDS011;920;48.944;9.148;2022-10-13T03:38:36;10.67;;;8.50;;
1839;SDS011;920;48.944;9.148;2022-10-13T03:41:04;9.53;;;8.53;;
1839;SDS011;920;48.944;9.148;2022-10-13T03:43:31;13.03;;;9.43;;
1839;SDS011;920;48.944;9.148;2022-10-13T03:45:58;12.73;;;9.47;;
1839;SDS011;920;48.944;9.148;2022-10-13T03:48:26;11.03;;;9.53;;
1839;SDS011;920;48.944;9.148;2022-10-13T03:50:53;10.30;;;9.20;;
1839;SDS011;920;48.944;9.148;2022-10-13T03:53:20;10.53;;;8.70;;
1839;SDS011;920;48.944;9.148;2022-10-13T03:55:48;9.73;;;8.73;;
1839;SDS011;920;48.944;9.148;2022-10-13T03:58:16;10.33;;;9.30;;
1839;SDS011;920;48.944;9.148;2022-10-13T04:00:42;10.77;;;9.67;;
1839;SDS011;920;48.944;9.148;2022-10-13T04:03:09;11.67;;;8.40;;
1839;SDS011;920;48.944;9.148;2022-10-13T04:05:36;11.60;;;9.43;;
1839;SDS011;920;48.944;9.148;2022-10-13T04:08:04;11.20;;;9.10;;
1839;SDS011;920;48.944;9.148;2022-10-13T04:10:30;15.87;;;9.87;;
1839;SDS011;920;48.944;9.148;2022-10-13T04:12:57;11.07;;;8.77;;
1839;SDS011;920;48.944;9.148;2022-10-13T04:15:25;12.00;;;8.70;;
1839;SDS011;920;48.944;9.148;2022-10-13T04:17:52;12.07;;;9.60;;
1839;SDS011;920;48.944;9.148;2022-10-13T04:20:19;13.13;;;10.70;;
1839;SDS011;920;48.944;9.148;2022-10-13T04:22:45;11.27;;;9.93;;
1839;SDS011;920;48.944;9.148;2022-10-13T04:25:12;11.73;;;9.20;;
1839;SDS011;920;48.944;9.148;2022-10-13T04:27:39;12.60;;;9.93;;
1839;SDS011;920;48.944;9.148;2022-10-13T04:30:06;14.87;;;10.00;;
1839;SDS011;920;48.944;9.148;2022-10-13T04:32:34;11.63;;;9.73;;
1839;SDS011;920;48.944;9.148;2022-10-13T04:35:01;12.33;;;9.50;;
1839;SDS011;920;48.944;9.148;2022-10-13T04:37:28;12.83;;;10.30;;
1839;SDS011;920;48.944;9.148;2022-10-13T04:39:55;16.13;;;10.67;;
1839;SDS011;920;48.944;9.148;2022-10-13T04:42:22;12.90;;;11.00;;
1839;SDS011;920;48.944;9.148;2022-10-13T04:44:48;12.43;;;10.07;;
1839;SDS011;920;48.944;9.148;2022-10-13T04:47:15;12.40;;;10.00;;
1839;SDS011;920;48.944;9.148;2022-10-13T04:49:43;13.27;;;9.87;;
1839;SDS011;920;48.944;9.148;2022-10-13T04:52:10;13.57;;;10.33;;
1839;SDS011;920;48.944;9.148;2022-10-13T04:54:36;12.77;;;10.33;;
1839;SDS011;920;48.944;9.148;2022-10-13T04:57:03;11.53;;;9.70;;
1839;SDS011;920;48.944;9.148;2022-10-13T04:59:29;12.07;;;10.47;;
1839;SDS011;920;48.944;9.148;2022-10-13T05:01:56;10.83;;;8.27;;
1839;SDS011;920;48.944;9.148;2022-10-13T05:04:23;15.40;;;9.23;;
1839;SDS011;920;48.944;9.148;2022-10-13T05:06:51;14.57;;;10.47;;
1839;SDS011;920;48.944;9.148;2022-10-13T05:09:17;12.10;;;10.10;;
1839;SDS011;920;48.944;9.148;2022-10-13T05:11:46;11.47;;;9.67;;
1839;SDS011;920;48.944;9.148;2022-10-13T05:14:13;10.03;;;8.60;;
1839;SDS011;920;48.944;9.148;2022-10-13T05:16:39;11.57;;;9.13;;
1839;SDS011;920;48.944;9.148;2022-10-13T05:19:06;10.40;;;9.30;;
1839;SDS011;920;48.944;9.148;2022-10-13T05:21:32;11.80;;;10.03;;
1839;SDS011;920;48.944;9.148;2022-10-13T05:24:00;12.60;;;10.57;;
1839;SDS011;920;48.944;9.148;2022-10-13T05:26:30;10.70;;;9.13;;
1839;SDS011;920;48.944;9.148;2022-10-13T05:28:58;14.83;;;8.90;;
1839;SDS011;920;48.944;9.148;2022-10-13T05:31:25;11.90;;;9.67;;
1839;SDS011;920;48.944;9.148;2022-10-13T05:33:53;15.50;;;10.53;;
1839;SDS011;920;48.944;9.148;2022-10-13T05:36:21;13.67;;;10.40;;
1839;SDS011;920;48.944;9.148;2022-10-13T05:38:49;9.90;;;8.77;;
1839;SDS011;920;48.944;9.148;2022-10-13T05:41:18;13.23;;;10.20;;
1839;SDS011;920;48.944;9.148;2022-10-13T05:43:45;11.00;;;9.50;;
1839;SDS011;920;48.944;9.148;2022-10-13T05:46:12;15.00;;;10.30;;
1839;SDS011;920;48.944;9.148;2022-10-13T05:48:39;17.50;;;13.55;;
1839;SDS011;920;48.944;9.148;2022-10-13T05:51:08;14.40;;;11.97;;
1839;SDS011;920;48.944;9.148;2022-10-13T05:53:36;13.60;;;9.63;;
1839;SDS011;920;48.944;9.148;2022-10-13T05:56:06;11.53;;;9.80;;
1839;SDS011;920;48.944;9.148;2022-10-13T05:58:38;13.40;;;9.80;;
1839;SDS011;920;48.944;9.148;2022-10-13T06:01:08;11.10;;;9.30;;
1839;SDS011;920;48.944;9.148;2022-10-13T06:03:37;10.93;;;9.50;;
1839;SDS011;920;48.944;9.148;2022-10-13T06:06:06;12.13;;;10.20;;
1839;SDS011;920;48.944;9.148;2022-10-13T06:08:33;13.50;;;10.80;;
1839;SDS011;920;48.944;9.148;2022-10-13T06:10:59;10.60;;;9.00;;
1839;SDS011;920;48.944;9.148;2022-10-13T06:13:27;11.73;;;9.00;;
1839;SDS011;920;48.944;9.148;2022-10-13T06:15:55;10.53;;;9.40;;
1839;SDS011;920;48.944;9.148;2022-10-13T06:18:22;12.10;;;10.30;;
1839;SDS011;920;48.944;9.148;2022-10-13T06:20:48;10.23;;;9.13;;
1839;SDS011;920;48.944;9.148;2022-10-13T06:23:15;12.00;;;9.03;;
1839;SDS011;920;48.944;9.148;2022-10-13T06:25:45;14.77;;;9.83;;
1839;SDS011;920;48.944;9.148;2022-10-13T06:28:13;14.50;;;9.43;;
1839;SDS011;920;48.944;9.148;2022-10-13T06:30:40;15.20;;;11.17;;
1839;SDS011;920;48.944;9.148;2022-10-13T06:33:08;10.57;;;9.03;;
1839;SDS011;920;48.944;9.148;2022-10-13T06:35:35;14.67;;;10.90;;
1839;SDS011;920;48.944;9.148;2022-10-13T06:38:01;12.30;;;8.40;;
1839;SDS011;920;48.944;9.148;2022-10-13T06:40:28;12.17;;;9.90;;
1839;SDS011;920;48.944;9.148;2022-10-13T06:42:55;12.10;;;10.17;;
1839;SDS011;920;48.944;9.148;2022-10-13T06:45:22;9.43;;;8.30;;
1839;SDS011;920;48.944;9.148;2022-10-13T06:47:51;13.13;;;9.13;;
1839;SDS011;920;48.944;9.148;2022-10-13T06:50:19;12.17;;;8.90;;
1839;SDS011;920;48.944;9.148;2022-10-13T06:52:46;13.47;;;10.80;;
1839;SDS011;920;48.944;9.148;2022-10-13T06:55:12;11.03;;;8.57;;
1839;SDS011;920;48.944;9.148;2022-10-13T06:57:39;11.70;;;9.90;;
1839;SDS011;920;48.944;9.148;2022-10-13T07:00:06;15.90;;;9.90;;
1839;SDS011;920;48.944;9.148;2022-10-13T07:02:33;13.30;;;11.27;;
1839;SDS011;920;48.944;9.148;2022-10-13T07:05:00;11.80;;;9.53;;
1839;SDS011;920;48.944;9.148;2022-10-13T07:07:28;12.80;;;10.53;;
1839;SDS011;920;48.944;9.148;2022-10-13T07:09:55;14.40;;;10.60;;
1839;SDS011;920;48.944;9.148;2022-10-13T07:12:21;11.90;;;10.50;;
1839;SDS011;920;48.944;9.148;2022-10-13T07:14:48;12.77;;;10.70;;
1839;SDS011;920;48.944;9.148;2022-10-13T07:17:14;15.03;;;10.80;;
1839;SDS011;920;48.944;9.148;2022-10-13T07:19:41;14.17;;;11.50;;
1839;SDS011;920;48.944;9.148;2022-10-13T07:22:08;12.83;;;10.87;;
1839;SDS011;920;48.944;9.148;2022-10-13T07:24:35;12.20;;;10.57;;
1839;SDS011;920;48.944;9.148;2022-10-13T07:27:02;14.77;;;11.00;;
1839;SDS011;920;48.944;9.148;2022-10-13T07:29:29;29.17;;;10.73;;
1839;SDS011;920;48.944;9.148;2022-10-13T07:31:55;12.73;;;10.20;;
1839;SDS011;920;48.944;9.148;2022-10-13T07:34:22;10.03;;;8.93;;
1839;SDS011;920;48.944;9.148;2022-10-13T07:36:48;10.53;;;9.07;;
1839;SDS011;920;48.944;9.148;2022-10-13T07:39:15;13.57;;;10.17;;
1839;SDS011;920;48.944;9.148;2022-10-13T07:41:43;14.10;;;11.00;;
1839;SDS011;920;48.944;9.148;2022-10-13T07:44:09;11.10;;;9.37;;
1839;SDS011;920;48.944;9.148;2022-10-13T07:46:36;13.17;;;10.63;;
1839;SDS011;920;48.944;9.148;2022-10-13T07:49:03;14.47;;;10.00;;
1839;SDS011;920;48.944;9.148;2022-10-13T07:51:29;14.47;;;10.67;;
1839;SDS011;920;48.944;9.148;2022-10-13T07:53:56;12.73;;;10.97;;
1839;SDS011;920;48.944;9.148;2022-10-13T07:56:22;12.67;;;10.90;;
1839;SDS011;920;48.944;9.148;2022-10-13T07:58:50;13.17;;;9.93;;
1839;SDS011;920;48.944;9.148;2022-10-13T08:01:17;12.80;;;10.53;;
1839;SDS011;920;48.944;9.148;2022-10-13T08:03:44;12.67;;;10.23;;
1839;SDS011;920;48.944;9.148;2022-10-13T08:06:11;12.47;;;11.13;;
1839;SDS011;920;48.944;9.148;2022-10-13T08:08:38;14.97;;;12.40;;
1839;SDS011;920;48.944;9.148;2022-10-13T08:11:06;12.87;;;9.70;;
1839;SDS011;920;48.944;9.148;2022-10-13T08:13:34;14.70;;;11.73;;
1839;SDS011;920;48.944;9.148;2022-10-13T08:16:02;15.17;;;12.40;;
1839;SDS011;920;48.944;9.148;2022-10-13T08:18:30;14.27;;;11.23;;
1839;SDS011;920;48.944;9.148;2022-10-13T08:20:58;15.77;;;12.77;;
1839;SDS011;920;48.944;9.148;2022-10-13T08:23:26;12.37;;;10.70;;
1839;SDS011;920;48.944;9.148;2022-10-13T08:25:53;15.43;;;12.20;;
1839;SDS011;920;48.944;9.148;2022-10-13T08:28:21;15.27;;;11.20;;
1839;SDS011;920;48.944;9.148;2022-10-13T08:30:50;13.37;;;11.97;;
1839;SDS011;920;48.944;9.148;2022-10-13T08:33:19;20.00;;;11.33;;
1839;SDS011;920;48.944;9.148;2022-10-13T08:35:45;15.50;;;12.70;;
1839;SDS011;920;48.944;9.148;2022-10-13T08:38:12;13.73;;;10.60;;
1839;SDS011;920;48.944;9.148;2022-10-13T08:40:39;12.20;;;10.90;;
1839;SDS011;920;48.944;9.148;2022-10-13T08:43:05;14.23;;;11.20;;
1839;SDS011;920;48.944;9.148;2022-10-13T08:45:32;13.40;;;10.90;;
1839;SDS011;920;48.944;9.148;2022-10-13T08:48:00;11.70;;;10.37;;
1839;SDS011;920;48.944;9.148;2022-10-13T08:50:31;15.20;;;10.73;;
1839;SDS011;920;48.944;9.148;2022-10-13T08:53:00;14.50;;;11.07;;
1839;SDS011;920;48.944;9.148;2022-10-13T08:55:29;15.03;;;10.30;;
1839;SDS011;920;48.944;9.148;2022-10-13T08:57:58;11.67;;;9.03;;
1839;SDS011;920;48.944;9.148;2022-10-13T09:00:25;13.10;;;11.00;;
1839;SDS011;920;48.944;9.148;2022-10-13T09:02:51;12.93;;;9.50;;
1839;SDS011;920;48.944;9.148;2022-10-13T09:05:21;14.70;;;9.40;;
1839;SDS011;920;48.944;9.148;2022-10-13T09:07:56;9.73;;;8.43;;
1839;SDS011;920;48.944;9.148;2022-10-13T09:10:24;13.10;;;10.03;;
1839;SDS011;920;48.944;9.148;2022-10-13T09:12:51;10.73;;;8.90;;
1839;SDS011;920;48.944;9.148;2022-10-13T09:15:17;15.03;;;9.87;;
1839;SDS011;920;48.944;9.148;2022-10-13T09:17:45;15.27;;;9.60;;
1839;SDS011;920;48.944;9.148;2022-10-13T09:20:35;15.50;;;9.20;;
1839;SDS011;920;48.944;9.148;2022-10-13T09:23:04;9.97;;;8.67;;
1839;SDS011;920;48.944;9.148;2022-10-13T09:25:37;12.80;;;8.60;;
1839;SDS011;920;48.944;9.148;2022-10-13T09:28:08;9.00;;;8.10;;
1839;SDS011;920;48.944;9.148;2022-10-13T09:30:36;9.70;;;7.10;;
1839;SDS011;920;48.944;9.148;2022-10-13T09:33:06;12.83;;;9.23;;
1839;SDS011;920;48.944;9.148;2022-10-13T09:35:46;11.43;;;8.57;;
1839;SDS011;920;48.944;9.148;2022-10-13T09:38:16;11.37;;;8.40;;
1839;SDS011;920;48.944;9.148;2022-10-13T09:40:54;9.50;;;7.73;;
1839;SDS011;920;48.944;9.148;2022-10-13T09:43:25;9.00;;;7.53;;
1839;SDS011;920;48.944;9.148;2022-10-13T09:45:54;9.33;;;7.40;;
1839;SDS011;920;48.944;9.148;2022-10-13T09:48:22;9.33;;;7.60;;
1839;SDS011;920;48.944;9.148;2022-10-13T09:50:51;9.40;;;7.57;;
1839;SDS011;920;48.944;9.148;2022-10-13T09:53:21;8.70;;;7.50;;
1839;SDS011;920;48.944;9.148;2022-10-13T09:55:55;10.50;;;6.60;;
1839;SDS011;920;48.944;9.148;2022-10-13T09:58:33;9.30;;;7.63;;
1839;SDS011;920;48.944;9.148;2022-10-13T10:01:03;9.13;;;6.50;;
1839;SDS011;920;48.944;9.148;2022-10-13T10:03:30;9.27;;;7.30;;
1839;SDS011;920;48.944;9.148;2022-10-13T10:05:58;10.30;;;7.10;;
1839;SDS011;920;48.944;9.148;2022-10-13T10:08:28;8.17;;;7.33;;
1839;SDS011;920;48.944;9.148;2022-10-13T10:10:59;8.93;;;6.90;;
1839;SDS011;920;48.944;9.148;2022-10-13T10:13:27;8.77;;;7.43;;
1839;SDS011;920;48.944;9.148;2022-10-13T10:15:56;10.27;;;7.80;;
1839;SDS011;920;48.944;9.148;2022-10-13T10:18:29;9.73;;;7.23;;
1839;SDS011;920;48.944;9.148;2022-10-13T10:20:59;9.67;;;7.00;;
1839;SDS011;920;48.944;9.148;2022-10-13T10:23:42;8.80;;;6.00;;
1839;SDS011;920;48.944;9.148;2022-10-13T10:26:13;7.60;;;6.00;;
1839;SDS011;920;48.944;9.148;2022-10-13T10:28:56;9.83;;;7.80;;
1839;SDS011;920;48.944;9.148;2022-10-13T10:31:38;9.90;;;7.40;;
1839;SDS011;920;48.944;9.148;2022-10-13T10:34:18;8.57;;;6.77;;
1839;SDS011;920;48.944;9.148;2022-10-13T10:36:55;12.33;;;7.50;;
1839;SDS011;920;48.944;9.148;2022-10-13T10:39:29;11.03;;;8.37;;
1839;SDS011;920;48.944;9.148;2022-10-13T10:41:59;8.57;;;7.50;;
1839;SDS011;920;48.944;9.148;2022-10-13T10:44:28;8.93;;;6.60;;
1839;SDS011;920;48.944;9.148;2022-10-13T10:46:58;8.83;;;7.23;;
1839;SDS011;920;48.944;9.148;2022-10-13T10:49:28;10.07;;;7.50;;
1839;SDS011;920;48.944;9.148;2022-10-13T10:51:56;8.30;;;7.40;;
1839;SDS011;920;48.944;9.148;2022-10-13T10:54:25;13.10;;;6.30;;
1839;SDS011;920;48.944;9.148;2022-10-13T10:56:59;7.77;;;6.60;;
1839;SDS011;920;48.944;9.148;2022-10-13T10:59:36;7.90;;;5.90;;
1839;SDS011;920;48.944;9.148;2022-10-13T11:02:14;9.70;;;6.20;;
1839;SDS011;920;48.944;9.148;2022-10-13T11:04:51;8.13;;;5.93;;
1839;SDS011;920;48.944;9.148;2022-10-13T11:10:20;10.30;;;7.10;;
1839;SDS011;920;48.944;9.148;2022-10-13T11:15:41;12.60;;;6.70;;
1839;SDS011;920;48.944;9.148;2022-10-13T11:21:13;7.27;;;5.97;;
1839;SDS011;920;48.944;9.148;2022-10-13T11:23:42;10.70;;;6.53;;
1839;SDS011;920;48.944;9.148;2022-10-13T11:26:31;12.30;;;6.03;;
1839;SDS011;920;48.944;9.148;2022-10-13T11:29:14;6.97;;;5.90;;
1839;SDS011;920;48.944;9.148;2022-10-13T11:31:47;8.67;;;6.10;;
1839;SDS011;920;48.944;9.148;2022-10-13T11:34:26;6.37;;;5.77;;
1839;SDS011;920;48.944;9.148;2022-10-13T11:36:57;11.10;;;7.43;;
1839;SDS011;920;48.944;9.148;2022-10-13T11:42:30;8.17;;;5.90;;
1839;SDS011;920;48.944;9.148;2022-10-13T11:45:03;8.50;;;7.17;;
1839;SDS011;920;48.944;9.148;2022-10-13T11:50:31;6.90;;;6.03;;
1839;SDS011;920;48.944;9.148;2022-10-13T11:53:06;7.93;;;6.53;;
1839;SDS011;920;48.944;9.148;2022-10-13T11:55:41;7.67;;;6.40;;
1839;SDS011;920;48.944;9.148;2022-10-13T11:58:14;7.33;;;6.00;;
1839;SDS011;920;48.944;9.148;2022-10-13T12:00:49;7.10;;;6.40;;
1839;SDS011;920;48.944;9.148;2022-10-13T12:03:20;7.37;;;5.80;;
1839;SDS011;920;48.944;9.148;2022-10-13T12:05:49;7.23;;;5.77;;
1839;SDS011;920;48.944;9.148;2022-10-13T12:08:16;6.03;;;5.27;;
1839;SDS011;920;48.944;9.148;2022-10-13T12:10:44;7.70;;;6.90;;
1839;SDS011;920;48.944;9.148;2022-10-13T12:13:19;8.90;;;6.47;;
1839;SDS011;920;48.944;9.148;2022-10-13T12:15:47;9.20;;;6.63;;
1839;SDS011;920;48.944;9.148;2022-10-13T12:18:19;7.93;;;6.57;;
1839;SDS011;920;48.944;9.148;2022-10-13T12:20:51;9.07;;;6.90;;
1839;SDS011;920;48.944;9.148;2022-10-13T12:23:18;7.03;;;6.33;;
1839;SDS011;920;48.944;9.148;2022-10-13T12:25:45;7.67;;;6.30;;
1839;SDS011;920;48.944;9.148;2022-10-13T12:28:15;7.13;;;6.40;;
1839;SDS011;920;48.944;9.148;2022-10-13T12:30:51;7.70;;;5.93;;
1839;SDS011;920;48.944;9.148;2022-10-13T12:33:19;8.33;;;6.60;;
1839;SDS011;920;48.944;9.148;2022-10-13T12:35:51;9.43;;;6.60;;
1839;SDS011;920;48.944;9.148;2022-10-13T12:38:19;7.13;;;5.20;;
1839;SDS011;920;48.944;9.148;2022-10-13T12:40:46;8.27;;;6.30;;
1839;SDS011;920;48.944;9.148;2022-10-13T12:43:15;8.30;;;6.30;;
1839;SDS011;920;48.944;9.148;2022-10-13T12:45:44;8.53;;;5.97;;
1839;SDS011;920;48.944;9.148;2022-10-13T12:48:29;6.53;;;5.40;;
1839;SDS011;920;48.944;9.148;2022-10-13T12:51:06;8.20;;;5.50;;
1839;SDS011;920;48.944;9.148;2022-10-13T12:53:35;8.57;;;5.90;;
1839;SDS011;920;48.944;9.148;2022-10-13T12:56:03;6.53;;;5.83;;
1839;SDS011;920;48.944;9.148;2022-10-13T12:58:31;8.80;;;6.93;;
1839;SDS011;920;48.944;9.148;2022-10-13T13:01:04;6.60;;;5.50;;
1839;SDS011;920;48.944;9.148;2022-10-13T13:03:35;7.80;;;5.80;;
1839;SDS011;920;48.944;9.148;2022-10-13T13:06:06;5.77;;;5.10;;
1839;SDS011;920;48.944;9.148;2022-10-13T13:08:35;9.03;;;5.90;;
1839;SDS011;920;48.944;9.148;2022-10-13T13:11:02;8.07;;;5.80;;
1839;SDS011;920;48.944;9.148;2022-10-13T13:13:31;8.73;;;6.10;;
1839;SDS011;920;48.944;9.148;2022-10-13T13:16:11;8.80;;;7.00;;
1839;SDS011;920;48.944;9.148;2022-10-13T13:18:40;10.60;;;6.33;;
1839;SDS011;920;48.944;9.148;2022-10-13T13:21:08;9.13;;;6.17;;
1839;SDS011;920;48.944;9.148;2022-10-13T13:23:36;7.47;;;6.63;;
1839;SDS011;920;48.944;9.148;2022-10-13T13:26:05;9.10;;;6.80;;
1839;SDS011;920;48.944;9.148;2022-10-13T13:28:37;12.87;;;6.80;;
1839;SDS011;920;48.944;9.148;2022-10-13T13:31:07;7.17;;;6.07;;
1839;SDS011;920;48.944;9.148;2022-10-13T13:33:34;8.03;;;5.60;;
1839;SDS011;920;48.944;9.148;2022-10-13T13:36:02;7.07;;;5.83;;
1839;SDS011;920;48.944;9.148;2022-10-13T13:38:29;5.80;;;5.17;;
1839;SDS011;920;48.944;9.148;2022-10-13T13:40:55;9.63;;;6.53;;
1839;SDS011;920;48.944;9.148;2022-10-13T13:43:22;10.57;;;6.90;;
1839;SDS011;920;48.944;9.148;2022-10-13T13:45:49;6.10;;;5.17;;
1839;SDS011;920;48.944;9.148;2022-10-13T13:48:15;7.77;;;5.53;;
1839;SDS011;920;48.944;9.148;2022-10-13T13:50:42;6.03;;;4.87;;
1839;SDS011;920;48.944;9.148;2022-10-13T13:53:10;12.60;;;6.30;;
1839;SDS011;920;48.944;9.148;2022-10-13T13:55:37;8.73;;;5.10;;
1839;SDS011;920;48.944;9.148;2022-10-13T13:58:03;6.20;;;4.50;;
1839;SDS011;920;48.944;9.148;2022-10-13T14:00:30;6.70;;;6.00;;
1839;SDS011;920;48.944;9.148;2022-10-13T14:02:57;8.73;;;6.03;;
1839;SDS011;920;48.944;9.148;2022-10-13T14:05:23;7.57;;;5.73;;
1839;SDS011;920;48.944;9.148;2022-10-13T14:07:52;8.33;;;5.30;;
1839;SDS011;920;48.944;9.148;2022-10-13T14:10:21;6.00;;;5.40;;
1839;SDS011;920;48.944;9.148;2022-10-13T14:12:48;9.20;;;6.20;;
1839;SDS011;920;48.944;9.148;2022-10-13T14:15:15;10.00;;;6.13;;
1839;SDS011;920;48.944;9.148;2022-10-13T14:17:41;8.97;;;5.50;;
1839;SDS011;920;48.944;9.148;2022-10-13T14:20:08;9.67;;;6.33;;
1839;SDS011;920;48.944;9.148;2022-10-13T14:22:36;10.50;;;5.77;;
1839;SDS011;920;48.944;9.148;2022-10-13T14:25:03;10.17;;;5.80;;
1839;SDS011;920;48.944;9.148;2022-10-13T14:27:33;9.80;;;6.00;;
1839;SDS011;920;48.944;9.148;2022-10-13T14:29:59;8.33;;;5.63;;
1839;SDS011;920;48.944;9.148;2022-10-13T14:32:26;8.00;;;5.83;;
1839;SDS011;920;48.944;9.148;2022-10-13T14:34:53;6.40;;;4.97;;
1839;SDS011;920;48.944;9.148;2022-10-13T14:37:20;8.27;;;5.83;;
1839;SDS011;920;48.944;9.148;2022-10-13T14:39:46;7.50;;;5.53;;
1839;SDS011;920;48.944;9.148;2022-10-13T14:42:13;7.73;;;5.20;;
1839;SDS011;920;48.944;9.148;2022-10-13T14:44:41;8.13;;;5.70;;
1839;SDS011;920;48.944;9.148;2022-10-13T14:47:07;7.50;;;5.33;;
1839;SDS011;920;48.944;9.148;2022-10-13T14:49:34;8.43;;;5.80;;
1839;SDS011;920;48.944;9.148;2022-10-13T14:52:01;8.50;;;5.70;;
1839;SDS011;920;48.944;9.148;2022-10-13T14:54:27;7.10;;;5.80;;
1839;SDS011;920;48.944;9.148;2022-10-13T14:56:54;9.70;;;5.70;;
1839;SDS011;920;48.944;9.148;2022-10-13T14:59:21;9.60;;;5.77;;
1839;SDS011;920;48.944;9.148;2022-10-13T15:01:49;7.93;;;6.10;;
1839;SDS011;920;48.944;9.148;2022-10-13T15:04:15;7.10;;;5.30;;
1839;SDS011;920;48.944;9.148;2022-10-13T15:06:42;5.87;;;5.00;;
1839;SDS011;920;48.944;9.148;2022-10-13T15:09:09;6.80;;;5.83;;
1839;SDS011;920;48.944;9.148;2022-10-13T15:11:36;5.40;;;4.83;;
1839;SDS011;920;48.944;9.148;2022-10-13T15:14:03;9.47;;;6.20;;
1839;SDS011;920;48.944;9.148;2022-10-13T15:16:31;8.77;;;7.00;;
1839;SDS011;920;48.944;9.148;2022-10-13T15:18:59;11.03;;;5.70;;
1839;SDS011;920;48.944;9.148;2022-10-13T15:21:26;8.40;;;6.60;;
1839;SDS011;920;48.944;9.148;2022-10-13T15:23:53;6.00;;;5.40;;
1839;SDS011;920;48.944;9.148;2022-10-13T15:26:21;6.07;;;4.93;;
1839;SDS011;920;48.944;9.148;2022-10-13T15:28:48;10.40;;;5.00;;
1839;SDS011;920;48.944;9.148;2022-10-13T15:31:16;8.07;;;5.50;;
1839;SDS011;920;48.944;9.148;2022-10-13T15:33:43;5.20;;;4.70;;
1839;SDS011;920;48.944;9.148;2022-10-13T15:36:12;7.30;;;5.90;;
1839;SDS011;920;48.944;9.148;2022-10-13T15:38:39;6.90;;;5.20;;
1839;SDS011;920;48.944;9.148;2022-10-13T15:41:06;7.53;;;5.27;;
1839;SDS011;920;48.944;9.148;2022-10-13T15:43:33;9.10;;;6.07;;
1839;SDS011;920;48.944;9.148;2022-10-13T15:46:00;6.40;;;5.50;;
1839;SDS011;920;48.944;9.148;2022-10-13T15:48:28;7.87;;;5.93;;